Time;durP1;ratioP1;P1;durP2;ratioP2;P2;SDS_P1;SDS_P2;PMS_P1;PMS_P2;Temp;Humidity;BMP_temperature;BMP_pressure;BME280_temperature;BME280_humidity;BME280_pressure;Samples;Min_cycle;Max_cycle;Signal;HPM_P1;HPM_P2
2022/01/28 00:02:55;;;;;;;;;45.50;37.25;;;;;11.75;64.72;102868.03;5072628;28;45540;-79
2022/01/28 00:05:22;;;;;;;;;47.00;35.50;;;;;11.71;64.90;102854.78;5073145;28;45537;-83
2022/01/28 00:07:53;;;;;;;;;44.00;36.00;;;;;11.74;64.97;102855.31;5054381;28;47343;-78
2022/01/28 00:10:20;;;;;;;;;47.25;38.50;;;;;11.69;64.65;102857.72;5052348;28;48329;-77
2022/01/28 00:18:48;;;;;;;;;49.00;39.75;;;;;11.81;64.81;102880.25;5073717;28;45763;-83
2022/01/28 00:40:30;;;;;;;;;43.25;36.25;;;;;11.84;64.97;102894.53;5052424;28;45983;-81
2022/01/28 00:42:56;;;;;;;;;50.25;36.00;;;;;11.87;64.97;102911.72;5050888;28;46481;-79
2022/01/28 00:45:23;;;;;;;;;44.33;35.67;;;;;11.89;65.04;102904.19;5051395;28;45567;-81
2022/01/28 00:47:48;;;;;;;;;44.33;35.67;;;;;11.88;64.85;102902.47;5052920;28;45418;-82
2022/01/28 00:50:15;;;;;;;;;48.67;35.67;;;;;11.74;65.04;102877.31;5053295;28;45536;-78
2022/01/28 00:52:40;;;;;;;;;38.00;32.67;;;;;11.83;64.74;102895.56;5034936;28;46892;-83
2022/01/28 00:55:06;;;;;;;;;47.00;36.00;;;;;11.82;65.33;102902.06;5062978;28;45457;-79
2022/01/28 00:57:32;;;;;;;;;37.33;32.67;;;;;11.88;64.90;102905.22;5075708;28;45348;-81
2022/01/28 00:59:58;;;;;;;;;46.50;37.75;;;;;11.94;64.76;102910.94;5076879;28;45895;-80
2022/01/28 01:02:23;;;;;;;;;45.33;36.33;;;;;11.76;64.72;102886.22;5054584;28;46866;-80
2022/01/28 01:04:51;;;;;;;;;38.00;32.33;;;;;11.89;64.73;102902.28;5073694;28;44861;-77
2022/01/28 01:07:17;;;;;;;;;42.33;33.67;;;;;11.82;65.00;102907.56;5074242;28;45556;-83
2022/01/28 01:09:45;;;;;;;;;36.00;31.00;;;;;11.80;64.84;102908.78;5076462;28;45919;-82
2022/01/28 01:12:11;;;;;;;;;38.33;33.00;;;;;11.87;64.29;102914.47;5077296;28;45823;-78
2022/01/28 01:14:40;;;;;;;;;37.33;32.67;;;;;11.79;64.99;102909.78;5076891;28;45531;-81
2022/01/28 01:17:19;;;;;;;;;46.00;34.00;;;;;11.83;64.52;102920.31;5056327;28;45478;-79
2022/01/28 01:19:52;;;;;;;;;43.67;32.00;;;;;11.82;64.62;102924.06;5059756;28;46146;-78
2022/01/28 01:22:19;;;;;;;;;40.67;29.33;;;;;11.79;64.72;102927.16;5081363;28;45719;-82
2022/01/28 01:24:51;;;;;;;;;36.33;31.67;;;;;11.82;64.75;102934.22;5079123;28;45484;-77
2022/01/28 01:27:18;;;;;;;;;31.33;26.33;;;;;11.82;64.38;102925.97;5076773;28;45363;-77
2022/01/28 01:29:45;;;;;;;;;34.33;32.00;;;;;11.72;64.06;102919.72;5062374;28;45811;-79
2022/01/28 01:32:14;;;;;;;;;36.00;31.00;;;;;11.78;64.05;102930.94;5065371;28;46714;-79
2022/01/28 01:34:41;;;;;;;;;32.00;26.67;;;;;11.79;64.01;102937.28;5082123;28;45503;-78
2022/01/28 01:37:08;;;;;;;;;27.00;23.00;;;;;11.74;64.26;102943.28;5078662;28;45509;-77
2022/01/28 01:39:36;;;;;;;;;33.67;26.33;;;;;11.75;64.37;102928.53;5056529;28;45702;-80
2022/01/28 01:42:14;;;;;;;;;34.67;29.33;;;;;11.78;64.42;102943.81;5074157;28;45726;-79
2022/01/28 01:52:40;;;;;;;;;31.33;27.00;;;;;11.75;63.71;102957.88;5072933;28;45386;-78
2022/01/28 01:55:07;;;;;;;;;35.67;28.00;;;;;11.68;63.89;102954.94;5073774;28;45918;-76
2022/01/28 01:57:33;;;;;;;;;32.00;29.33;;;;;11.60;63.93;102952.09;5073250;28;45778;-79
2022/01/28 01:59:58;;;;;;;;;35.33;31.67;;;;;11.57;64.12;102958.81;5056596;28;45760;-77
2022/01/28 02:02:24;;;;;;;;;34.00;27.33;;;;;11.47;63.68;102953.41;5072348;28;46984;-76
2022/01/28 02:04:50;;;;;;;;;28.33;27.33;;;;;11.46;64.02;102973.66;5056451;28;45383;-80
2022/01/28 02:07:16;;;;;;;;;28.67;28.00;;;;;11.31;64.14;102967.00;5056887;28;45455;-78
2022/01/28 02:09:42;;;;;;;;;28.00;28.00;;;;;11.28;64.47;102978.31;5049982;28;46218;-77
2022/01/28 02:12:09;;;;;;;;;30.67;27.67;;;;;11.21;64.40;102980.84;5070452;28;47097;-78
2022/01/28 02:14:35;;;;;;;;;29.67;26.33;;;;;11.06;64.74;102976.91;5054194;28;45681;-82
2022/01/28 02:17:02;;;;;;;;;25.67;23.67;;;;;11.05;64.66;102983.44;5037367;28;45630;-82
2022/01/28 02:19:28;;;;;;;;;39.00;29.00;;;;;10.91;64.44;102980.22;5055270;28;45819;-78
2022/01/28 02:21:54;;;;;;;;;31.00;25.67;;;;;10.84;64.77;102978.22;5054788;28;45513;-82
2022/01/28 02:24:27;;;;;;;;;33.00;29.00;;;;;10.83;64.96;102988.34;5056514;28;45927;-78
2022/01/28 02:26:53;;;;;;;;;31.33;29.00;;;;;10.83;65.70;102993.00;5054144;28;45450;-77
2022/01/28 02:29:28;;;;;;;;;32.00;27.00;;;;;10.81;65.60;102990.41;5055475;28;45763;-79
2022/01/28 02:31:54;;;;;;;;;31.00;26.33;;;;;10.81;65.70;102984.03;5065187;27;47149;-79
2022/01/28 02:34:19;;;;;;;;;31.33;27.67;;;;;10.77;65.60;102983.50;5074743;28;45989;-81
2022/01/28 02:36:45;;;;;;;;;33.67;25.67;;;;;10.79;65.44;102989.69;5076663;28;46060;-82
2022/01/28 02:39:11;;;;;;;;;27.00;26.00;;;;;10.77;65.15;102991.72;5075727;28;46808;-81
2022/01/28 02:41:41;;;;;;;;;26.00;24.67;;;;;10.75;65.35;102988.28;5058081;28;47077;-79
2022/01/28 02:46:36;;;;;;;;;30.00;24.33;;;;;10.83;65.12;102996.59;5076465;28;45476;-81
2022/01/28 02:49:07;;;;;;;;;32.33;28.67;;;;;10.77;65.36;102986.25;5057939;28;46612;-78
2022/01/28 02:51:33;;;;;;;;;25.33;22.00;;;;;10.84;64.97;103002.94;5074016;28;46580;-77
2022/01/28 02:54:01;;;;;;;;;30.33;21.00;;;;;10.82;64.91;102989.38;5073081;28;45860;-77
2022/01/28 02:58:57;;;;;;;;;33.33;26.67;;;;;10.87;64.63;102991.69;5075020;28;46217;-83
2022/01/28 03:01:23;;;;;;;;;22.33;21.00;;;;;10.92;64.46;102990.16;5076349;28;46368;-78
2022/01/28 03:03:50;;;;;;;;;28.33;24.33;;;;;11.00;64.55;102994.03;5073059;28;45422;-78
2022/01/28 03:06:18;;;;;;;;;28.00;22.00;;;;;10.97;64.84;102986.94;5072413;28;45504;-77
2022/01/28 03:08:51;;;;;;;;;27.00;23.00;;;;;11.06;64.47;102987.91;5073406;28;45723;-76
2022/01/28 03:14:13;;;;;;;;;25.33;24.00;;;;;11.05;64.36;102966.97;5074726;28;45421;-80
2022/01/28 03:16:55;;;;;;;;;25.33;21.33;;;;;11.05;64.28;102976.06;5075697;28;45554;-78
2022/01/28 03:19:24;;;;;;;;;30.67;25.67;;;;;11.07;64.84;102968.53;5056185;28;46216;-82
2022/01/28 03:21:56;;;;;;;;;33.33;24.33;;;;;11.04;64.52;102951.50;5054992;28;47546;-81
2022/01/28 03:24:24;;;;;;;;;36.67;28.33;;;;;11.10;64.88;102961.84;5057008;28;45858;-77
2022/01/28 03:26:53;;;;;;;;;26.33;23.67;;;;;11.13;64.92;102962.38;5074737;28;45425;-80
2022/01/28 03:29:19;;;;;;;;;28.33;23.67;;;;;11.17;64.42;102971.19;5071821;28;47073;-79
2022/01/28 03:31:44;;;;;;;;;25.00;22.00;;;;;11.14;63.86;102968.78;5068213;28;45783;-79
2022/01/28 03:34:10;;;;;;;;;34.67;27.00;;;;;11.12;64.43;102963.44;5073054;28;45455;-78
2022/01/28 03:36:36;;;;;;;;;33.67;24.33;;;;;11.12;64.39;102960.69;5058513;28;45775;-77
2022/01/28 03:39:03;;;;;;;;;29.00;24.00;;;;;11.17;64.33;102967.56;5057438;28;45961;-81
2022/01/28 03:41:29;;;;;;;;;28.00;23.00;;;;;11.12;64.54;102970.78;5091799;28;45397;-80
2022/01/28 03:43:58;;;;;;;;;29.67;27.67;;;;;11.18;64.63;102972.91;5078889;28;45825;-80
2022/01/28 03:46:25;;;;;;;;;30.00;23.00;;;;;11.18;64.62;102977.53;5077855;28;45521;-79
2022/01/28 03:48:51;;;;;;;;;29.33;25.33;;;;;11.17;64.43;102984.94;5075185;28;45698;-77
2022/01/28 03:51:16;;;;;;;;;27.67;23.00;;;;;11.22;64.77;102993.53;5073754;28;45778;-77
2022/01/28 03:53:42;;;;;;;;;28.33;20.33;;;;;11.20;64.53;102997.50;5057572;28;45695;-82
2022/01/28 03:56:07;;;;;;;;;31.00;24.33;;;;;11.07;64.59;102995.97;5074189;28;45766;-79
2022/01/28 03:58:33;;;;;;;;;27.67;25.33;;;;;11.16;64.79;103010.66;5074796;28;45307;-81
2022/01/28 04:00:59;;;;;;;;;26.00;23.00;;;;;11.15;64.80;103010.81;5073003;28;46237;-79
2022/01/28 04:11:32;;;;;;;;;28.00;23.33;;;;;11.14;64.80;103023.69;5072829;28;45743;-77
2022/01/28 04:14:18;;;;;;;;;34.00;28.33;;;;;11.16;64.50;103020.78;5074628;28;45525;-81
2022/01/28 04:19:28;;;;;;;;;32.33;26.00;;;;;11.12;64.54;103006.50;5075238;28;45945;-80
2022/01/28 04:21:53;;;;;;;;;37.33;28.33;;;;;11.13;64.48;103014.56;5055401;28;47735;-81
2022/01/28 04:24:18;;;;;;;;;35.00;27.00;;;;;11.09;64.58;103009.56;5056333;28;45557;-81
2022/01/28 04:26:44;;;;;;;;;32.00;28.00;;;;;11.00;64.78;102999.50;5074986;28;45473;-80
2022/01/28 04:29:11;;;;;;;;;44.00;32.67;;;;;11.05;64.69;102997.19;5073155;28;45658;-78
2022/01/28 04:31:42;;;;;;;;;39.67;29.00;;;;;11.11;64.47;103024.88;5074165;28;45683;-81
2022/01/28 04:34:08;;;;;;;;;37.00;29.33;;;;;11.10;64.60;103014.88;5073356;28;45816;-80
2022/01/28 04:36:38;;;;;;;;;31.00;26.33;;;;;11.16;64.48;103018.91;5054919;28;45487;-76
2022/01/28 04:39:13;;;;;;;;;35.67;25.33;;;;;11.12;64.66;103009.22;5072243;28;46236;-76
2022/01/28 04:44:17;;;;;;;;;32.00;27.67;;;;;11.24;63.97;103023.59;5072449;28;45448;-80
2022/01/28 04:47:06;;;;;;;;;38.00;26.00;;;;;11.23;64.64;103032.88;5055838;28;45790;-79
2022/01/28 04:52:35;;;;;;;;;30.33;26.33;;;;;11.22;63.45;103040.25;5071527;28;45442;-77
2022/01/28 04:58:07;;;;;;;;;30.33;26.00;;;;;11.23;63.52;103035.63;5078858;28;45710;-78
2022/01/28 05:07:59;;;;;;;;;31.00;26.33;;;;;11.18;63.46;103041.56;5077144;28;45368;-80
2022/01/28 05:10:50;;;;;;;;;36.00;29.33;;;;;11.09;63.73;103026.03;5061639;28;46811;-82
2022/01/28 05:24:08;;;;;;;;;24.00;23.00;;;;;11.08;64.15;103068.25;5056868;28;45419;-80
2022/01/28 05:28:52;;;;;;;;;22.33;16.67;;;;;11.11;63.16;103068.81;5054723;28;45648;-80
2022/01/28 05:31:20;;;;;;;;;18.00;18.00;;;;;11.12;63.17;103070.53;5064223;28;45580;-79
2022/01/28 05:33:46;;;;;;;;;33.67;28.33;;;;;11.13;62.73;103075.00;5075276;28;45969;-77
2022/01/28 05:36:11;;;;;;;;;47.75;39.00;;;;;11.12;63.17;103076.03;5053139;28;45726;-81
2022/01/28 05:38:36;;;;;;;;;30.00;26.67;;;;;11.12;62.97;103080.63;5074375;28;45858;-75
2022/01/28 05:41:02;;;;;;;;;38.67;29.67;;;;;11.13;63.16;103071.38;5071378;27;45496;-80
2022/01/28 05:43:27;;;;;;;;;31.67;28.00;;;;;11.12;63.20;103081.53;5056734;28;45761;-80
2022/01/28 05:45:54;;;;;;;;;29.33;21.33;;;;;11.08;62.35;103074.59;5055870;27;45398;-76
2022/01/28 05:48:21;;;;;;;;;26.67;21.67;;;;;11.09;62.50;103079.09;5073793;28;45659;-80
2022/01/28 05:50:46;;;;;;;;;30.67;27.33;;;;;11.13;62.96;103077.72;5073577;27;45661;-75
2022/01/28 05:53:11;;;;;;;;;40.67;27.33;;;;;11.16;62.54;103090.31;5050854;28;48327;-75
2022/01/28 05:55:37;;;;;;;;;31.67;28.00;;;;;11.11;62.96;103089.91;5073455;28;45989;-75
2022/01/28 05:58:02;;;;;;;;;37.33;26.67;;;;;11.17;63.12;103093.91;5070640;27;45526;-80
2022/01/28 06:00:28;;;;;;;;;24.33;21.33;;;;;11.15;63.61;103101.44;5070870;28;46135;-80
2022/01/28 06:02:53;;;;;;;;;27.67;21.33;;;;;11.17;62.92;103108.53;5071425;27;45831;-76
2022/01/28 06:05:19;;;;;;;;;26.67;23.67;;;;;11.17;62.21;103105.78;5065166;27;45878;-77
2022/01/28 06:07:44;;;;;;;;;26.00;23.67;;;;;11.17;62.17;103102.13;5065213;28;45595;-81
2022/01/28 06:10:11;;;;;;;;;29.00;23.33;;;;;11.20;62.27;103099.13;5066374;27;45641;-77
2022/01/28 06:12:42;;;;;;;;;26.67;22.33;;;;;11.23;62.03;103105.16;5070521;27;45511;-80
2022/01/28 06:15:09;;;;;;;;;27.67;23.33;;;;;11.25;62.14;103115.97;5059755;27;45711;-82
2022/01/28 06:17:34;;;;;;;;;25.00;21.67;;;;;11.19;61.94;103102.88;5075137;27;45838;-80
2022/01/28 06:20:02;;;;;;;;;25.33;21.00;;;;;11.21;61.50;103111.81;5048872;28;46124;-78
2022/01/28 06:22:27;;;;;;;;;23.67;22.33;;;;;11.13;61.19;103104.34;5063510;28;45424;-83
2022/01/28 06:24:52;;;;;;;;;22.00;20.00;;;;;11.17;61.07;103115.88;5054552;28;45675;-74
2022/01/28 06:27:18;;;;;;;;;31.33;22.33;;;;;11.16;61.25;103116.91;5072204;27;45526;-80
2022/01/28 06:29:43;;;;;;;;;31.33;23.67;;;;;11.15;61.60;103106.94;5065670;28;45687;-74
2022/01/28 06:32:11;;;;;;;;;28.00;19.33;;;;;11.06;60.54;103112.34;5073019;27;46187;-77
2022/01/28 06:34:38;;;;;;;;;21.67;16.33;;;;;11.10;61.47;103110.16;5060287;28;45778;-77
2022/01/28 06:37:04;;;;;;;;;25.67;21.67;;;;;11.16;61.39;103114.16;5034724;28;45478;-76
2022/01/28 06:39:32;;;;;;;;;18.67;18.33;;;;;11.17;60.79;103104.88;5049234;28;45783;-78
2022/01/28 06:41:57;;;;;;;;;24.33;24.00;;;;;11.21;62.10;103106.31;5057667;28;45593;-77
2022/01/28 06:44:23;;;;;;;;;30.67;25.33;;;;;11.25;61.51;103114.09;5077259;28;45564;-68
2022/01/28 06:46:48;;;;;;;;;23.67;22.33;;;;;11.25;61.07;103113.22;5076165;28;45642;-78
2022/01/28 06:49:14;;;;;;;;;29.33;21.67;;;;;11.27;61.09;103122.16;5052258;28;46116;-70
2022/01/28 06:51:39;;;;;;;;;29.67;24.00;;;;;11.33;62.06;103121.53;5066931;28;46390;-76
2022/01/28 06:54:05;;;;;;;;;26.00;22.67;;;;;11.39;61.06;103120.94;5081262;28;45722;-73
2022/01/28 06:56:30;;;;;;;;;31.33;24.00;;;;;11.43;60.72;103133.34;5059290;28;45777;-74
2022/01/28 06:59:10;;;;;;;;;34.33;25.33;;;;;11.43;60.82;103127.84;5079809;28;45640;-66
2022/01/28 07:01:36;;;;;;;;;27.67;26.33;;;;;11.40;60.97;103130.06;5061068;28;47852;-74
2022/01/28 07:04:01;;;;;;;;;26.33;25.67;;;;;11.42;61.24;103139.88;5073000;28;45663;-74
2022/01/28 07:06:27;;;;;;;;;27.67;25.67;;;;;11.43;61.18;103132.47;5053219;28;45881;-76
2022/01/28 07:08:52;;;;;;;;;34.33;29.67;;;;;11.41;61.55;103129.91;5237880;22;45317;-78
2022/01/28 07:11:18;;;;;;;;;33.33;24.00;;;;;11.37;61.01;103124.88;5085797;27;46077;-77
2022/01/28 07:13:44;;;;;;;;;35.67;30.00;;;;;11.36;60.81;103132.25;5079410;27;45511;-77
2022/01/28 07:16:09;;;;;;;;;37.67;30.00;;;;;11.35;61.36;103141.50;5095314;27;45776;-75
2022/01/28 07:18:35;;;;;;;;;29.33;21.33;;;;;11.31;60.74;103145.56;5089756;27;45584;-76
2022/01/28 07:21:01;;;;;;;;;40.67;29.67;;;;;11.29;61.31;103153.13;5086589;27;46258;-77
2022/01/28 07:23:26;;;;;;;;;26.00;23.33;;;;;11.28;61.05;103154.13;5089178;27;45457;-76
2022/01/28 07:25:52;;;;;;;;;34.33;26.00;;;;;11.28;61.30;103156.88;5076647;27;45512;-77
2022/01/28 07:28:17;;;;;;;;;33.33;25.00;;;;;11.28;60.68;103156.88;5072057;28;45764;-77
2022/01/28 07:30:43;;;;;;;;;38.00;29.00;;;;;11.25;61.43;103160.78;5082659;27;46055;-76
2022/01/28 07:33:15;;;;;;;;;31.67;25.00;;;;;11.27;61.30;103171.63;5079640;27;45806;-74
2022/01/28 07:35:40;;;;;;;;;33.67;27.00;;;;;11.19;61.13;103169.66;5077426;27;45682;-75
2022/01/28 07:38:06;;;;;;;;;31.67;26.67;;;;;11.06;60.85;103152.66;5071004;28;45670;-78
2022/01/28 07:40:34;;;;;;;;;28.00;22.67;;;;;11.13;60.86;103170.25;5088153;28;44976;-81
2022/01/28 07:43:00;;;;;;;;;22.33;21.67;;;;;11.12;61.14;103172.16;5080909;28;45356;-76
2022/01/28 07:45:25;;;;;;;;;35.33;31.00;;;;;11.13;61.33;103173.00;5083134;28;45359;-77
2022/01/28 07:47:51;;;;;;;;;38.67;28.00;;;;;11.10;60.76;103178.81;5082422;27;45765;-78
2022/01/28 07:50:17;;;;;;;;;34.33;28.00;;;;;11.06;60.91;103181.00;5064310;28;46192;-77
2022/01/28 07:52:43;;;;;;;;;24.00;23.33;;;;;11.04;61.43;103191.25;5083521;27;45650;-77
2022/01/28 07:55:14;;;;;;;;;27.67;22.00;;;;;11.02;61.36;103184.19;5084832;27;45193;-78
2022/01/28 07:57:51;;;;;;;;;27.00;24.00;;;;;11.02;60.74;103197.91;5104291;27;45142;-79
2022/01/28 08:00:16;;;;;;;;;30.33;23.33;;;;;11.04;61.72;103205.00;5076616;27;47177;-75
2022/01/28 08:02:42;;;;;;;;;39.00;25.33;;;;;11.05;60.77;103203.97;5072919;27;45845;-76
2022/01/28 08:05:09;;;;;;;;;28.33;22.00;;;;;11.01;61.30;103199.78;5071425;27;45714;-74
2022/01/28 08:07:34;;;;;;;;;26.00;24.00;;;;;11.05;60.40;103201.22;5093586;27;45867;-74
2022/01/28 08:10:00;;;;;;;;;37.00;25.33;;;;;11.09;60.61;103202.66;5083969;27;45955;-75
2022/01/28 08:12:28;;;;;;;;;18.67;16.33;;;;;11.09;60.58;103204.53;5094789;27;45383;-73
2022/01/28 08:14:53;;;;;;;;;31.67;26.00;;;;;11.07;60.80;103204.69;5095949;27;45844;-73
2022/01/28 08:17:18;;;;;;;;;31.33;27.67;;;;;11.09;60.72;103204.53;5095017;27;45977;-72
2022/01/28 08:19:44;;;;;;;;;32.00;26.67;;;;;11.08;60.31;103203.69;5092951;27;45872;-73
2022/01/28 08:22:10;;;;;;;;;30.00;27.00;;;;;11.14;60.34;103204.97;5097477;27;45753;-74
2022/01/28 08:24:35;;;;;;;;;29.00;26.33;;;;;11.17;60.30;103221.13;5099722;27;45776;-75
2022/01/28 08:27:01;;;;;;;;;28.33;20.67;;;;;11.24;59.94;103210.38;5097178;27;45432;-75
2022/01/28 08:29:29;;;;;;;;;36.00;27.00;;;;;11.29;59.67;103216.31;5078982;27;47126;-75
2022/01/28 08:31:55;;;;;;;;;31.00;27.00;;;;;11.37;60.11;103226.53;5093187;27;45442;-73
2022/01/28 08:34:21;;;;;;;;;32.33;27.67;;;;;11.34;59.20;103221.34;5097021;27;45887;-71
2022/01/28 08:36:46;;;;;;;;;31.33;26.33;;;;;11.40;58.81;103235.31;5089851;27;45530;-73
2022/01/28 08:39:14;;;;;;;;;33.67;30.33;;;;;11.41;58.38;103242.53;5083406;27;45732;-71
2022/01/28 08:41:42;;;;;;;;;35.67;25.67;;;;;11.41;58.67;103253.53;5091020;27;45845;-70
2022/01/28 08:44:07;;;;;;;;;29.00;23.33;;;;;11.45;58.23;103256.84;5082415;27;45589;-72
2022/01/28 08:46:34;;;;;;;;;29.67;27.00;;;;;11.47;57.67;103257.56;5093032;27;46023;-72
2022/01/28 08:49:03;;;;;;;;;28.67;25.33;;;;;11.47;58.48;103263.91;5072294;27;46691;-76
2022/01/28 08:51:29;;;;;;;;;28.67;20.33;;;;;11.51;57.79;103260.84;5092002;27;45668;-73
2022/01/28 08:53:54;;;;;;;;;32.33;26.00;;;;;11.54;57.37;103271.53;5063699;27;45838;-74
2022/01/28 08:56:20;;;;;;;;;33.33;25.67;;;;;11.58;57.74;103272.97;5093787;27;45768;-75
2022/01/28 08:58:48;;;;;;;;;24.33;20.67;;;;;11.62;57.44;103268.91;5093150;27;45426;-76
2022/01/28 09:01:14;;;;;;;;;37.00;27.33;;;;;11.65;57.96;103274.09;5094338;27;45590;-74
2022/01/28 09:03:39;;;;;;;;;36.33;29.67;;;;;11.65;57.92;103265.84;5093882;27;45432;-72
2022/01/28 09:06:05;;;;;;;;;31.00;27.33;;;;;11.76;57.87;103284.88;5091035;27;45993;-74
2022/01/28 09:08:30;;;;;;;;;33.67;28.33;;;;;11.73;57.87;103276.06;5094656;27;45689;-74
2022/01/28 09:13:41;;;;;;;;;25.33;21.33;;;;;11.85;56.89;103283.06;5051120;27;45488;-74
2022/01/28 09:16:07;;;;;;;;;29.33;24.33;;;;;11.91;57.08;103284.34;5093721;27;45956;-75
2022/01/28 09:18:32;;;;;;;;;22.67;20.67;;;;;11.95;56.85;103283.91;5092040;27;45751;-74
2022/01/28 09:20:58;;;;;;;;;31.67;25.00;;;;;12.01;56.94;103279.69;5093686;27;45780;-76
2022/01/28 09:23:23;;;;;;;;;27.67;22.00;;;;;12.06;56.16;103276.47;5079677;27;45862;-72
2022/01/28 09:25:49;;;;;;;;;28.67;23.67;;;;;12.07;56.62;103278.19;5091963;27;45458;-74
2022/01/28 09:28:15;;;;;;;;;28.00;24.67;;;;;12.18;56.00;103280.69;5093037;27;45687;-72
2022/01/28 09:30:41;;;;;;;;;24.00;23.00;;;;;12.20;55.50;103275.91;5085673;27;45703;-75
2022/01/28 09:33:09;;;;;;;;;27.00;21.00;;;;;12.32;55.01;103282.03;5091648;27;45836;-72
2022/01/28 09:35:36;;;;;;;;;20.67;20.67;;;;;12.36;55.10;103284.31;5093111;27;45837;-74
2022/01/28 09:38:02;;;;;;;;;27.00;22.33;;;;;12.39;55.44;103282.25;5093015;27;45830;-75
2022/01/28 09:40:28;;;;;;;;;24.00;19.00;;;;;12.45;54.68;103289.88;5088503;27;45408;-76
2022/01/28 09:42:54;;;;;;;;;22.33;19.00;;;;;12.52;55.12;103283.59;5093372;27;45999;-74
2022/01/28 09:45:24;;;;;;;;;26.00;23.67;;;;;12.56;54.49;103284.16;5095508;27;45528;-72
2022/01/28 09:47:53;;;;;;;;;24.67;20.33;;;;;12.64;54.25;103283.34;5094599;27;45835;-74
2022/01/28 09:50:21;;;;;;;;;34.00;21.67;;;;;12.76;54.25;103261.91;5091498;27;45858;-74
2022/01/28 09:52:48;;;;;;;;;21.33;21.00;;;;;12.92;54.16;103277.66;5095102;27;45745;-73
2022/01/28 09:55:13;;;;;;;;;27.33;23.67;;;;;12.99;53.93;103276.84;5092683;27;45337;-71
2022/01/28 09:57:39;;;;;;;;;30.00;23.00;;;;;13.10;53.46;103280.34;5095799;27;46046;-71
2022/01/28 10:00:06;;;;;;;;;29.00;24.67;;;;;13.15;53.26;103278.00;5093511;27;45536;-73
2022/01/28 10:02:47;;;;;;;;;23.33;21.67;;;;;13.19;52.80;103288.53;5091956;27;45441;-74
2022/01/28 10:05:34;;;;;;;;;20.67;19.33;;;;;13.30;52.68;103286.50;5097912;27;45379;-76
2022/01/28 10:08:06;;;;;;;;;32.00;23.33;;;;;13.34;52.53;103283.28;5071599;27;47398;-76
2022/01/28 10:10:54;;;;;;;;;26.67;25.67;;;;;13.39;53.13;103280.03;5085335;27;45393;-76
2022/01/28 10:13:26;;;;;;;;;29.00;24.67;;;;;13.40;52.58;103284.53;5082854;27;45604;-78
2022/01/28 10:15:52;;;;;;;;;26.67;20.00;;;;;13.48;52.49;103297.47;5101237;27;45454;-75
2022/01/28 10:18:17;;;;;;;;;23.67;20.00;;;;;13.51;51.22;103288.88;5072094;27;46997;-76
2022/01/28 10:20:43;;;;;;;;;31.00;22.67;;;;;13.60;51.57;103287.88;5091296;27;45562;-74
2022/01/28 10:23:13;;;;;;;;;23.67;22.00;;;;;13.60;51.24;103285.97;5076139;27;45876;-75
2022/01/28 10:25:42;;;;;;;;;28.00;23.33;;;;;13.68;51.70;103284.28;5087137;27;45626;-77
2022/01/28 10:28:12;;;;;;;;;27.67;24.33;;;;;13.76;51.45;103292.59;5090525;27;47008;-77
2022/01/28 10:30:42;;;;;;;;;26.33;20.00;;;;;13.81;51.51;103281.91;5095428;27;45471;-73
2022/01/28 10:33:10;;;;;;;;;25.00;22.67;;;;;13.84;50.51;103289.00;5079019;27;45367;-74
2022/01/28 10:35:36;;;;;;;;;26.33;22.00;;;;;13.78;51.72;103296.03;5096278;27;45563;-74
2022/01/28 10:38:02;;;;;;;;;29.33;27.67;;;;;13.74;51.11;103309.31;5096432;27;45333;-72
2022/01/28 10:40:28;;;;;;;;;27.67;26.67;;;;;13.73;51.79;103309.47;5094161;27;45784;-72
2022/01/28 10:42:53;;;;;;;;;37.67;29.67;;;;;13.74;50.98;103316.69;5094963;27;45785;-75
2022/01/28 10:45:24;;;;;;;;;21.67;19.00;;;;;13.78;51.09;103312.59;5095786;27;45453;-74
2022/01/28 10:47:54;;;;;;;;;32.33;29.67;;;;;13.84;51.21;103311.91;5095413;27;46509;-72
2022/01/28 10:50:26;;;;;;;;;34.67;29.67;;;;;13.89;51.15;103314.16;5084458;27;45895;-74
2022/01/28 10:53:11;;;;;;;;;35.00;26.33;;;;;13.99;51.56;103309.38;5070325;27;45475;-74
2022/01/28 10:55:38;;;;;;;;;33.00;24.00;;;;;14.04;51.05;103308.88;5094618;27;45444;-73
2022/01/28 10:58:09;;;;;;;;;22.00;19.67;;;;;14.11;50.71;103301.63;5095488;27;45452;-76
2022/01/28 11:00:38;;;;;;;;;28.67;25.00;;;;;14.19;51.26;103298.91;5093817;27;45644;-75
2022/01/28 11:03:05;;;;;;;;;29.00;24.33;;;;;14.26;50.75;103312.88;5071890;27;45809;-74
2022/01/28 11:05:33;;;;;;;;;32.67;29.67;;;;;14.20;50.14;103322.69;5095258;27;45563;-72
2022/01/28 11:08:00;;;;;;;;;38.67;30.33;;;;;14.13;49.92;103321.63;5094531;27;45622;-72
2022/01/28 11:10:26;;;;;;;;;40.67;34.00;;;;;14.08;50.61;103324.06;5092657;27;45804;-74
2022/01/28 11:12:52;;;;;;;;;36.33;31.67;;;;;14.04;50.49;103318.03;5091784;27;45444;-73
2022/01/28 11:15:20;;;;;;;;;35.67;26.33;;;;;14.03;50.52;103298.88;5094570;27;45766;-73
2022/01/28 11:17:47;;;;;;;;;33.67;27.33;;;;;14.09;50.28;103295.44;5072810;27;47025;-74
2022/01/28 11:20:18;;;;;;;;;33.67;25.33;;;;;14.11;50.34;103291.44;5073081;27;45435;-75
2022/01/28 11:23:17;;;;;;;;;26.33;23.33;;;;;14.16;50.89;103301.13;5061555;28;45549;-73
2022/01/28 11:25:59;;;;;;;;;28.33;25.00;;;;;14.21;50.36;103288.56;5066296;28;45710;-72
2022/01/28 11:28:44;;;;;;;;;37.67;31.33;;;;;14.25;50.65;103295.47;5073080;28;46743;-73
2022/01/28 11:31:11;;;;;;;;;31.00;30.00;;;;;14.30;49.70;103293.03;5074153;27;45587;-74
2022/01/28 11:33:50;;;;;;;;;29.00;22.33;;;;;14.39;49.37;103284.78;5094288;27;45813;-74
2022/01/28 11:36:33;;;;;;;;;24.67;22.00;;;;;14.41;50.19;103286.31;5093877;27;45770;-74
2022/01/28 11:39:08;;;;;;;;;28.00;24.67;;;;;14.53;49.44;103291.50;5093319;27;45883;-73
2022/01/28 11:41:35;;;;;;;;;31.33;22.00;;;;;14.55;49.44;103283.91;5088564;27;45713;-73
2022/01/28 11:44:02;;;;;;;;;25.00;22.67;;;;;14.58;49.18;103270.63;5069239;27;45761;-75
2022/01/28 11:46:37;;;;;;;;;24.00;21.67;;;;;14.50;48.95;103245.75;5091719;27;45588;-75
2022/01/28 11:49:04;;;;;;;;;23.33;21.00;;;;;14.63;48.58;103264.59;5093005;27;45748;-74
2022/01/28 11:51:32;;;;;;;;;24.33;20.33;;;;;14.52;49.11;103276.84;5091380;27;45473;-74
2022/01/28 11:54:04;;;;;;;;;26.00;19.67;;;;;14.44;48.39;103263.03;5094174;27;45867;-73
2022/01/28 11:56:31;;;;;;;;;26.33;23.00;;;;;14.44;48.71;103263.03;5085067;27;45836;-74
2022/01/28 11:59:00;;;;;;;;;20.00;18.67;;;;;14.42;49.56;103265.97;5073430;28;46915;-75
2022/01/28 12:01:49;;;;;;;;;26.67;19.67;;;;;14.42;49.10;103243.03;5088026;27;45833;-73
2022/01/28 12:04:27;;;;;;;;;23.00;22.00;;;;;14.45;49.35;103242.66;5083343;27;45887;-77
2022/01/28 12:06:58;;;;;;;;;22.67;21.00;;;;;14.46;49.15;103236.09;5079132;27;45602;-78
2022/01/28 12:09:25;;;;;;;;;19.00;16.33;;;;;14.51;48.60;103230.94;5084536;27;46207;-78
2022/01/28 12:11:51;;;;;;;;;20.00;16.00;;;;;14.61;47.79;103225.22;5088990;27;45713;-77
2022/01/28 12:14:17;;;;;;;;;19.67;19.00;;;;;14.76;48.45;103234.56;5090668;27;45624;-78
2022/01/28 12:16:46;;;;;;;;;22.00;19.67;;;;;14.84;47.82;103219.84;5091037;27;45527;-77
2022/01/28 12:19:14;;;;;;;;;25.33;18.67;;;;;14.85;47.58;103224.34;5092113;27;46503;-79
2022/01/28 12:22:00;;;;;;;;;23.00;18.33;;;;;14.85;47.51;103221.59;5097882;27;45437;-77
2022/01/28 12:24:26;;;;;;;;;21.00;17.00;;;;;14.84;47.30;103206.03;5079180;27;45449;-77
2022/01/28 12:27:10;;;;;;;;;18.00;16.33;;;;;14.86;47.38;103195.66;5092396;27;45676;-77
2022/01/28 12:29:47;;;;;;;;;19.33;16.67;;;;;14.89;47.12;103195.31;5086607;27;45768;-78
2022/01/28 12:32:16;;;;;;;;;17.33;16.33;;;;;14.91;46.19;103190.47;5086778;27;45750;-75
2022/01/28 12:34:49;;;;;;;;;19.67;16.67;;;;;14.91;46.79;103182.19;5083366;27;45784;-78
2022/01/28 12:37:21;;;;;;;;;20.00;16.33;;;;;15.02;45.52;103210.47;5089695;27;45838;-79
2022/01/28 12:39:55;;;;;;;;;17.33;15.00;;;;;15.05;46.19;103212.88;5084673;27;45857;-77